Time;durP1;ratioP1;P1;durP2;ratioP2;P2;SDS_P1;SDS_P2;PMS_P1;PMS_P2;Temp;Humidity;BMP_temperature;BMP_pressure;BME280_temperature;BME280_humidity;BME280_pressure;Samples;Min_cycle;Max_cycle;Signal;HPM_P1;HPM_P2
2021/12/17 02:12:30;;;;;;;55.37;16.47;;;;;;;;;;6185982;22;20215;-92
2021/12/17 02:23:00;;;;;;;57.10;16.10;;;;;;;;;;6214523;23;20267;-92
2021/12/17 02:29:45;;;;;;;62.57;18.47;;;;;;;;;;6215962;23;20164;-91
2021/12/17 02:32:51;;;;;;;58.97;17.40;;;;;;;;;;6215457;23;20246;-93
2021/12/17 02:35:56;;;;;;;55.03;17.53;;;;;;;;;;6217103;23;20175;-90
2021/12/17 02:39:23;;;;;;;53.80;17.43;;;;;;;;;;6216366;23;20167;-90
2021/12/17 02:42:50;;;;;;;61.50;17.60;;;;;;;;;;6216959;23;20190;-91
2021/12/17 02:45:56;;;;;;;58.20;17.37;;;;;;;;;;6214837;23;20186;-91
2021/12/17 02:49:02;;;;;;;58.33;16.67;;;;;;;;;;6216031;23;20183;-88
2021/12/17 02:52:10;;;;;;;64.50;19.03;;;;;;;;;;6216342;23;20167;-90
2021/12/17 02:55:17;;;;;;;59.10;18.17;;;;;;;;;;6218127;23;20174;-90
2021/12/17 02:58:24;;;;;;;53.47;16.37;;;;;;;;;;6218154;23;20210;-90
2021/12/17 03:01:29;;;;;;;50.53;15.33;;;;;;;;;;6218259;23;20154;-89
2021/12/17 03:04:35;;;;;;;57.70;16.50;;;;;;;;;;6218123;23;20190;-91
2021/12/17 03:08:13;;;;;;;52.97;16.40;;;;;;;;;;6218110;23;20159;-89
2021/12/17 03:11:20;;;;;;;56.57;15.80;;;;;;;;;;6218077;23;20190;-90
2021/12/17 03:14:25;;;;;;;62.97;17.73;;;;;;;;;;6218112;23;20195;-91
2021/12/17 03:17:53;;;;;;;58.80;16.60;;;;;;;;;;6218026;23;20159;-92
2021/12/17 03:24:22;;;;;;;48.47;15.37;;;;;;;;;;6217198;23;20590;-90
2021/12/17 03:27:28;;;;;;;53.03;15.67;;;;;;;;;;6218153;23;20167;-91
2021/12/17 03:30:34;;;;;;;48.13;14.97;;;;;;;;;;6218074;23;20183;-92
2021/12/17 03:33:42;;;;;;;42.30;12.93;;;;;;;;;;6216658;23;20195;-90
2021/12/17 03:36:51;;;;;;;43.03;13.83;;;;;;;;;;6218049;23;20194;-89
2021/12/17 03:39:56;;;;;;;44.03;13.80;;;;;;;;;;6219966;23;20222;-90
2021/12/17 03:43:12;;;;;;;46.13;13.80;;;;;;;;;;6220224;23;20159;-91
2021/12/17 03:46:17;;;;;;;41.03;12.33;;;;;;;;;;6219102;23;20198;-89
2021/12/17 03:49:23;;;;;;;38.50;11.80;;;;;;;;;;6217591;23;20198;-89
2021/12/17 03:52:31;;;;;;;33.77;11.40;;;;;;;;;;6216799;23;20216;-90
2021/12/17 03:55:36;;;;;;;33.57;10.37;;;;;;;;;;6217137;23;20171;-92
2021/12/17 03:58:46;;;;;;;32.47;9.77;;;;;;;;;;6216900;23;20168;-89
2021/12/17 04:01:51;;;;;;;32.27;10.60;;;;;;;;;;6217858;23;20214;-90
2021/12/17 04:04:56;;;;;;;33.50;10.13;;;;;;;;;;6216686;23;20194;-90
2021/12/17 04:08:32;;;;;;;28.40;9.63;;;;;;;;;;6234530;23;20178;-91
2021/12/17 04:11:37;;;;;;;28.07;9.83;;;;;;;;;;6236126;23;20175;-90
2021/12/17 04:14:52;;;;;;;33.10;9.40;;;;;;;;;;6218976;23;20158;-89
2021/12/17 04:17:58;;;;;;;30.03;9.90;;;;;;;;;;6219166;23;20167;-91
2021/12/17 04:21:09;;;;;;;24.20;8.80;;;;;;;;;;6218162;23;20171;-90
2021/12/17 04:24:14;;;;;;;23.67;8.23;;;;;;;;;;6218738;23;20214;-91
2021/12/17 04:27:21;;;;;;;25.23;8.63;;;;;;;;;;6217246;23;20171;-89
2021/12/17 04:30:29;;;;;;;22.47;8.50;;;;;;;;;;6217670;23;20276;-88
2021/12/17 04:33:38;;;;;;;24.57;7.27;;;;;;;;;;6218472;23;20172;-90
2021/12/17 04:36:44;;;;;;;21.93;7.63;;;;;;;;;;6217278;23;20182;-90
2021/12/17 04:39:57;;;;;;;21.17;8.10;;;;;;;;;;6217894;23;20171;-91
2021/12/17 04:43:15;;;;;;;19.57;7.80;;;;;;;;;;6218197;23;20171;-92
2021/12/17 04:46:31;;;;;;;20.83;8.60;;;;;;;;;;6217936;23;20207;-90
2021/12/17 05:00:04;;;;;;;18.37;7.60;;;;;;;;;;6215921;23;20234;-91
2021/12/17 05:03:20;;;;;;;22.57;8.43;;;;;;;;;;6215246;23;20199;-91
2021/12/17 05:06:29;;;;;;;20.77;7.80;;;;;;;;;;6215907;23;20199;-90
2021/12/17 05:09:47;;;;;;;24.77;8.53;;;;;;;;;;6215276;23;20167;-90
2021/12/17 05:19:48;;;;;;;22.83;9.10;;;;;;;;;;6216156;23;20175;-93
2021/12/17 05:22:57;;;;;;;19.50;8.40;;;;;;;;;;6217209;23;20191;-91
2021/12/17 05:26:05;;;;;;;24.53;10.20;;;;;;;;;;6216847;23;20203;-90
2021/12/17 05:29:15;;;;;;;29.37;8.50;;;;;;;;;;6217462;23;20164;-92
2021/12/17 05:32:22;;;;;;;20.43;7.90;;;;;;;;;;6217177;23;20488;-91
2021/12/17 05:35:31;;;;;;;20.93;7.90;;;;;;;;;;6217424;23;20163;-90
2021/12/17 05:38:39;;;;;;;24.07;8.37;;;;;;;;;;6217247;23;20216;-91
2021/12/17 05:41:46;;;;;;;24.30;8.50;;;;;;;;;;6213859;23;20174;-90
2021/12/17 05:45:31;;;;;;;22.57;8.50;;;;;;;;;;6215385;23;20241;-91
2021/12/17 05:48:37;;;;;;;24.87;8.37;;;;;;;;;;6215227;23;20257;-90
2021/12/17 05:51:43;;;;;;;26.90;8.70;;;;;;;;;;6215756;23;20179;-90
2021/12/17 05:54:49;;;;;;;22.87;8.70;;;;;;;;;;6215754;23;20159;-92
2021/12/17 05:57:55;;;;;;;22.57;7.80;;;;;;;;;;6216007;23;20170;-90
2021/12/17 06:01:00;;;;;;;22.37;7.53;;;;;;;;;;6216261;23;20236;-89
2021/12/17 06:04:25;;;;;;;23.00;9.07;;;;;;;;;;6215794;23;20159;-93
2021/12/17 06:07:53;;;;;;;26.27;8.83;;;;;;;;;;6216436;23;20187;-90
2021/12/17 06:10:58;;;;;;;25.67;8.77;;;;;;;;;;6217055;23;20155;-91
2021/12/17 06:14:03;;;;;;;28.13;8.53;;;;;;;;;;6218379;23;20183;-90
2021/12/17 06:17:13;;;;;;;24.37;8.37;;;;;;;;;;6217123;23;20202;-90
2021/12/17 06:20:24;;;;;;;25.70;9.43;;;;;;;;;;6218828;23;20166;-89
2021/12/17 06:23:34;;;;;;;24.53;9.77;;;;;;;;;;6216417;23;20195;-89
2021/12/17 06:26:40;;;;;;;25.60;9.33;;;;;;;;;;6214987;23;20199;-89
2021/12/17 06:29:46;;;;;;;30.03;8.73;;;;;;;;;;6214295;23;20159;-90
2021/12/17 06:32:56;;;;;;;21.37;8.40;;;;;;;;;;6218107;23;20200;-91
2021/12/17 06:36:03;;;;;;;24.27;8.80;;;;;;;;;;6217217;23;20243;-92
2021/12/17 06:39:14;;;;;;;24.87;10.00;;;;;;;;;;6219395;23;20508;-90
2021/12/17 06:42:20;;;;;;;25.50;9.17;;;;;;;;;;6218701;23;20187;-91
2021/12/17 06:45:39;;;;;;;31.83;11.60;;;;;;;;;;6216918;23;20662;-89
2021/12/17 06:48:47;;;;;;;27.60;9.93;;;;;;;;;;6217265;23;20157;-90
2021/12/17 06:55:38;;;;;;;27.30;9.90;;;;;;;;;;6217623;23;20188;-90
2021/12/17 06:59:32;;;;;;;31.50;9.27;;;;;;;;;;6206047;23;20179;-91
2021/12/17 08:58:27;;;;;;;30.47;11.23;;;;;;;;;;6197397;22;20208;-89
2021/12/17 09:04:57;;;;;;;34.50;12.10;;;;;;;;;;6236671;23;20155;-89
2021/12/17 09:11:38;;;;;;;35.70;10.80;;;;;;;;;;6222346;23;20508;-91
2021/12/17 09:14:56;;;;;;;29.87;10.23;;;;;;;;;;6218316;23;20212;-89
2021/12/17 09:18:38;;;;;;;31.20;9.63;;;;;;;;;;6238620;23;20150;-91
2021/12/17 23:18:38;;;;;;;22.73;9.90;;;;;;;;;;6214699;22;20215;-91
2021/12/17 23:21:48;;;;;;;26.37;10.60;;;;;;;;;;6218922;23;20187;-88
2021/12/17 23:24:54;;;;;;;28.13;10.27;;;;;;;;;;6218992;23;20164;-90
2021/12/17 23:27:59;;;;;;;26.57;10.23;;;;;;;;;;6219066;23;20155;-89
2021/12/17 23:31:05;;;;;;;25.03;10.23;;;;;;;;;;6217597;23;20170;-91
2021/12/17 23:34:40;;;;;;;29.20;10.57;;;;;;;;;;6218700;23;20167;-88
2021/12/17 23:37:39;;;;;;;25.80;10.83;;;;;;;;;;6220232;23;20182;-89
2021/12/17 23:40:45;;;;;;;26.53;10.43;;;;;;;;;;6220181;23;20212;-91
2021/12/17 23:43:51;;;;;;;28.30;11.47;;;;;;;;;;6220143;23;20174;-89
2021/12/17 23:46:56;;;;;;;26.87;10.70;;;;;;;;;;6219081;23;20178;-92
2021/12/17 23:53:36;;;;;;;32.07;12.27;;;;;;;;;;6219501;23;20210;-90
2021/12/17 23:56:41;;;;;;;33.87;12.23;;;;;;;;;;6219265;23;20168;-90
2021/12/17 23:59:55;;;;;;;32.03;12.57;;;;;;;;;;6219122;23;20191;-89
